sensor_id;sensor_type;location;lat;lon;timestamp;pressure;altitude;pressure_sealevel;temperature;humidity
35676;BME280;21790;42.668;23.298;2023-08-17T00:00:07;94774.13;;;27.67;44.63
35676;BME280;21790;42.668;23.298;2023-08-17T00:02:39;94781.91;;;27.67;44.44
35676;BME280;21790;42.668;23.298;2023-08-17T00:05:04;94780.94;;;27.72;44.57
35676;BME280;21790;42.668;23.298;2023-08-17T00:07:31;94785.34;;;27.65;44.78
35676;BME280;21790;42.668;23.298;2023-08-17T00:09:56;94778.13;;;27.64;44.84
35676;BME280;21790;42.668;23.298;2023-08-17T00:12:22;94782.53;;;27.50;45.82
35676;BME280;21790;42.668;23.298;2023-08-17T00:14:47;94787.44;;;27.42;45.47
35676;BME280;21790;42.668;23.298;2023-08-17T00:17:13;94786.13;;;27.43;45.92
35676;BME280;21790;42.668;23.298;2023-08-17T00:19:38;94784.25;;;27.38;46.17
35676;BME280;21790;42.668;23.298;2023-08-17T00:22:04;94789.16;;;27.53;45.90
35676;BME280;21790;42.668;23.298;2023-08-17T00:24:29;94787.25;;;27.40;45.90
35676;BME280;21790;42.668;23.298;2023-08-17T00:26:55;94787.44;;;27.34;46.21
35676;BME280;21790;42.668;23.298;2023-08-17T00:29:20;94787.84;;;27.38;46.10
35676;BME280;21790;42.668;23.298;2023-08-17T00:31:47;94787.25;;;27.40;46.41
35676;BME280;21790;42.668;23.298;2023-08-17T00:34:13;94788.00;;;27.48;45.85
35676;BME280;21790;42.668;23.298;2023-08-17T00:36:38;94784.78;;;27.52;45.72
35676;BME280;21790;42.668;23.298;2023-08-17T00:39:04;94782.16;;;27.54;45.93
35676;BME280;21790;42.668;23.298;2023-08-17T00:41:29;94779.28;;;27.61;45.58
35676;BME280;21790;42.668;23.298;2023-08-17T00:43:56;94778.91;;;27.65;45.50
35676;BME280;21790;42.668;23.298;2023-08-17T00:46:22;94776.44;;;27.61;45.45
35676;BME280;21790;42.668;23.298;2023-08-17T00:48:48;94779.19;;;26.98;45.98
35676;BME280;21790;42.668;23.298;2023-08-17T00:51:14;94774.78;;;27.28;45.69
35676;BME280;21790;42.668;23.298;2023-08-17T00:53:40;94780.81;;;27.47;45.49
35676;BME280;21790;42.668;23.298;2023-08-17T00:56:06;94778.78;;;27.32;45.16
35676;BME280;21790;42.668;23.298;2023-08-17T00:58:32;94775.75;;;27.23;44.92
35676;BME280;21790;42.668;23.298;2023-08-17T01:00:58;94776.13;;;27.27;44.91
35676;BME280;21790;42.668;23.298;2023-08-17T01:03:26;94772.16;;;27.30;44.60
35676;BME280;21790;42.668;23.298;2023-08-17T01:05:53;94773.31;;;27.27;44.25
35676;BME280;21790;42.668;23.298;2023-08-17T01:08:18;94771.94;;;27.28;43.74
35676;BME280;21790;42.668;23.298;2023-08-17T01:13:31;94768.81;;;26.93;43.26
35676;BME280;21790;42.668;23.298;2023-08-17T01:16:02;94759.94;;;26.89;43.47
35676;BME280;21790;42.668;23.298;2023-08-17T01:18:34;94760.06;;;27.06;42.90
35676;BME280;21790;42.668;23.298;2023-08-17T01:21:00;94759.50;;;27.16;42.68
35676;BME280;21790;42.668;23.298;2023-08-17T01:23:26;94763.31;;;27.11;41.94
35676;BME280;21790;42.668;23.298;2023-08-17T01:25:52;94753.28;;;27.02;41.42
35676;BME280;21790;42.668;23.298;2023-08-17T01:28:19;94756.47;;;27.14;41.64
35676;BME280;21790;42.668;23.298;2023-08-17T01:33:23;94768.34;;;27.35;41.17
35676;BME280;21790;42.668;23.298;2023-08-17T01:35:58;94759.13;;;27.27;41.58
35676;BME280;21790;42.668;23.298;2023-08-17T01:38:29;94754.94;;;27.28;41.62
35676;BME280;21790;42.668;23.298;2023-08-17T01:40:55;94762.50;;;27.33;41.33
35676;BME280;21790;42.668;23.298;2023-08-17T01:43:22;94756.28;;;27.12;41.10
35676;BME280;21790;42.668;23.298;2023-08-17T01:45:47;94755.16;;;27.07;40.96
35676;BME280;21790;42.668;23.298;2023-08-17T01:48:13;94760.28;;;27.09;41.01
35676;BME280;21790;42.668;23.298;2023-08-17T01:50:39;94763.31;;;27.03;40.91
35676;BME280;21790;42.668;23.298;2023-08-17T01:53:04;94753.84;;;27.00;40.91
35676;BME280;21790;42.668;23.298;2023-08-17T01:55:29;94759.50;;;27.00;40.97
35676;BME280;21790;42.668;23.298;2023-08-17T01:57:55;94755.56;;;26.96;40.85
35676;BME280;21790;42.668;23.298;2023-08-17T02:00:20;94762.00;;;26.89;40.98
35676;BME280;21790;42.668;23.298;2023-08-17T02:02:46;94751.44;;;26.89;40.85
35676;BME280;21790;42.668;23.298;2023-08-17T02:05:12;94753.13;;;26.92;41.18
35676;BME280;21790;42.668;23.298;2023-08-17T02:07:37;94760.88;;;26.99;40.92
35676;BME280;21790;42.668;23.298;2023-08-17T02:10:03;94761.22;;;27.03;41.08
35676;BME280;21790;42.668;23.298;2023-08-17T02:12:29;94755.00;;;26.90;41.24
35676;BME280;21790;42.668;23.298;2023-08-17T02:14:54;94750.63;;;26.81;40.88
35676;BME280;21790;42.668;23.298;2023-08-17T02:17:20;94755.38;;;27.01;41.64
35676;BME280;21790;42.668;23.298;2023-08-17T02:19:47;94757.47;;;26.93;41.73
35676;BME280;21790;42.668;23.298;2023-08-17T02:22:14;94757.47;;;26.93;41.11
35676;BME280;21790;42.668;23.298;2023-08-17T02:24:40;94753.28;;;26.72;41.34
35676;BME280;21790;42.668;23.298;2023-08-17T02:27:06;94756.50;;;26.60;41.85
35676;BME280;21790;42.668;23.298;2023-08-17T02:29:32;94752.53;;;26.71;41.83
35676;BME280;21790;42.668;23.298;2023-08-17T02:31:58;94759.88;;;26.74;41.67
35676;BME280;21790;42.668;23.298;2023-08-17T02:34:24;94749.88;;;26.81;41.45
35676;BME280;21790;42.668;23.298;2023-08-17T02:36:50;94759.88;;;26.74;41.58
35676;BME280;21790;42.668;23.298;2023-08-17T02:39:15;94755.19;;;26.77;41.34
35676;BME280;21790;42.668;23.298;2023-08-17T02:41:41;94755.53;;;26.73;41.39
35676;BME280;21790;42.668;23.298;2023-08-17T02:44:06;94748.94;;;26.63;41.93
35676;BME280;21790;42.668;23.298;2023-08-17T02:46:32;94750.06;;;26.52;42.04
35676;BME280;21790;42.668;23.298;2023-08-17T02:48:58;94745.34;;;26.70;42.03
35676;BME280;21790;42.668;23.298;2023-08-17T02:51:23;94745.56;;;26.87;41.82
35676;BME280;21790;42.668;23.298;2023-08-17T02:53:49;94740.09;;;26.89;41.57
35676;BME280;21790;42.668;23.298;2023-08-17T02:56:14;94747.84;;;26.89;41.69
35676;BME280;21790;42.668;23.298;2023-08-17T02:58:40;94747.25;;;26.90;41.36
35676;BME280;21790;42.668;23.298;2023-08-17T03:01:07;94746.84;;;26.86;41.57
35676;BME280;21790;42.668;23.298;2023-08-17T03:03:33;94742.88;;;26.82;41.32
35676;BME280;21790;42.668;23.298;2023-08-17T03:05:58;94738.16;;;26.84;41.83
35676;BME280;21790;42.668;23.298;2023-08-17T03:08:24;94748.19;;;26.70;41.95
35676;BME280;21790;42.668;23.298;2023-08-17T03:10:49;94744.19;;;26.73;41.90
35676;BME280;21790;42.668;23.298;2023-08-17T03:13:15;94748.38;;;26.64;41.95
35676;BME280;21790;42.668;23.298;2023-08-17T03:15:41;94749.34;;;26.67;41.80
35676;BME280;21790;42.668;23.298;2023-08-17T03:18:06;94740.81;;;26.75;41.86
35676;BME280;21790;42.668;23.298;2023-08-17T03:20:32;94745.34;;;26.70;41.65
35676;BME280;21790;42.668;23.298;2023-08-17T03:22:57;94751.00;;;26.70;41.93
35676;BME280;21790;42.668;23.298;2023-08-17T03:25:23;94749.50;;;26.54;42.27
35676;BME280;21790;42.668;23.298;2023-08-17T03:27:49;94749.13;;;26.42;42.68
35676;BME280;21790;42.668;23.298;2023-08-17T03:30:14;94751.41;;;26.44;42.92
35676;BME280;21790;42.668;23.298;2023-08-17T03:32:40;94745.72;;;26.44;42.04
35676;BME280;21790;42.668;23.298;2023-08-17T03:35:06;94752.53;;;26.56;41.93
35676;BME280;21790;42.668;23.298;2023-08-17T03:37:32;94758.56;;;26.60;42.02
35676;BME280;21790;42.668;23.298;2023-08-17T03:39:58;94749.88;;;26.50;41.58
35676;BME280;21790;42.668;23.298;2023-08-17T03:42:23;94749.31;;;26.29;42.13
35676;BME280;21790;42.668;23.298;2023-08-17T03:44:49;94753.03;;;26.16;41.94
35676;BME280;21790;42.668;23.298;2023-08-17T03:47:15;94748.28;;;26.19;42.10
35676;BME280;21790;42.668;23.298;2023-08-17T03:49:41;94749.06;;;26.12;41.78
35676;BME280;21790;42.668;23.298;2023-08-17T03:52:06;94751.84;;;25.97;42.09
35676;BME280;21790;42.668;23.298;2023-08-17T03:54:32;94757.16;;;26.00;41.99
35676;BME280;21790;42.668;23.298;2023-08-17T03:56:58;94770.34;;;25.90;41.81
35676;BME280;21790;42.668;23.298;2023-08-17T03:59:23;94758.31;;;26.20;41.85
35676;BME280;21790;42.668;23.298;2023-08-17T04:01:50;94758.13;;;26.18;41.26
35676;BME280;21790;42.668;23.298;2023-08-17T04:06:48;94754.22;;;26.29;40.94
35676;BME280;21790;42.668;23.298;2023-08-17T04:09:15;94758.16;;;26.26;40.77
35676;BME280;21790;42.668;23.298;2023-08-17T04:11:41;94752.06;;;26.14;41.53
35676;BME280;21790;42.668;23.298;2023-08-17T04:14:07;94753.38;;;26.05;40.96
35676;BME280;21790;42.668;23.298;2023-08-17T04:16:34;94752.28;;;26.16;41.09
35676;BME280;21790;42.668;23.298;2023-08-17T04:19:02;94754.41;;;26.38;40.76
35676;BME280;21790;42.668;23.298;2023-08-17T04:21:28;94780.13;;;26.63;40.21
35676;BME280;21790;42.668;23.298;2023-08-17T04:23:55;94768.97;;;26.73;40.13
35676;BME280;21790;42.668;23.298;2023-08-17T04:26:22;94760.28;;;26.86;39.80
35676;BME280;21790;42.668;23.298;2023-08-17T04:28:48;94755.19;;;26.92;39.75
35676;BME280;21790;42.668;23.298;2023-08-17T04:31:14;94746.09;;;26.63;40.01
35676;BME280;21790;42.668;23.298;2023-08-17T04:33:43;94758.97;;;26.94;39.79
35676;BME280;21790;42.668;23.298;2023-08-17T04:36:10;94744.97;;;27.04;39.82
35676;BME280;21790;42.668;23.298;2023-08-17T04:38:36;94760.06;;;27.22;39.18
35676;BME280;21790;42.668;23.298;2023-08-17T04:41:02;94751.50;;;27.37;39.43
35676;BME280;21790;42.668;23.298;2023-08-17T04:43:29;94749.97;;;27.51;39.47
35676;BME280;21790;42.668;23.298;2023-08-17T04:45:55;94753.34;;;27.65;39.08
35676;BME280;21790;42.668;23.298;2023-08-17T04:48:23;94742.47;;;27.86;39.09
35676;BME280;21790;42.668;23.298;2023-08-17T04:50:50;94759.97;;;28.07;38.80
35676;BME280;21790;42.668;23.298;2023-08-17T04:53:18;94742.50;;;28.18;38.52
35676;BME280;21790;42.668;23.298;2023-08-17T04:55:44;94764.09;;;28.46;38.62
35676;BME280;21790;42.668;23.298;2023-08-17T04:58:10;94750.81;;;28.49;38.97
35676;BME280;21790;42.668;23.298;2023-08-17T05:00:39;94750.03;;;28.48;38.79
35676;BME280;21790;42.668;23.298;2023-08-17T05:03:07;94738.97;;;28.35;39.03
35676;BME280;21790;42.668;23.298;2023-08-17T05:05:33;94759.03;;;28.37;39.54
35676;BME280;21790;42.668;23.298;2023-08-17T05:08:01;94741.75;;;28.43;39.35
35676;BME280;21790;42.668;23.298;2023-08-17T05:10:27;94768.06;;;28.51;39.56
35676;BME280;21790;42.668;23.298;2023-08-17T05:12:54;94742.91;;;28.64;39.43
35676;BME280;21790;42.668;23.298;2023-08-17T05:15:25;94752.94;;;28.73;39.07
35676;BME280;21790;42.668;23.298;2023-08-17T05:17:50;94761.34;;;28.88;39.24
35676;BME280;21790;42.668;23.298;2023-08-17T05:20:17;94768.78;;;28.84;39.20
35676;BME280;21790;42.668;23.298;2023-08-17T05:22:44;94762.91;;;28.82;39.11
35676;BME280;21790;42.668;23.298;2023-08-17T05:25:10;94770.28;;;28.85;38.97
35676;BME280;21790;42.668;23.298;2023-08-17T05:27:36;94766.03;;;28.93;39.11
35676;BME280;21790;42.668;23.298;2023-08-17T05:30:01;94766.13;;;29.03;38.99
35676;BME280;21790;42.668;23.298;2023-08-17T05:32:27;94772.66;;;29.13;38.63
35676;BME280;21790;42.668;23.298;2023-08-17T05:34:54;94764.56;;;29.27;38.30
35676;BME280;21790;42.668;23.298;2023-08-17T05:37:19;94769.81;;;29.38;38.23
35676;BME280;21790;42.668;23.298;2023-08-17T05:39:45;94764.13;;;29.38;38.18
35676;BME280;21790;42.668;23.298;2023-08-17T05:42:10;94770.22;;;29.34;38.12
35676;BME280;21790;42.668;23.298;2023-08-17T05:44:36;94775.75;;;29.49;38.06
35676;BME280;21790;42.668;23.298;2023-08-17T05:47:03;94770.91;;;29.60;37.66
35676;BME280;21790;42.668;23.298;2023-08-17T05:49:30;94779.00;;;29.63;37.88
35676;BME280;21790;42.668;23.298;2023-08-17T05:51:56;94779.13;;;29.73;37.57
35676;BME280;21790;42.668;23.298;2023-08-17T05:54:22;94780.84;;;29.85;37.38
35676;BME280;21790;42.668;23.298;2023-08-17T05:56:48;94785.31;;;29.96;37.03
35676;BME280;21790;42.668;23.298;2023-08-17T05:59:14;94786.13;;;30.06;37.04
35676;BME280;21790;42.668;23.298;2023-08-17T06:01:39;94783.25;;;30.06;36.20
35676;BME280;21790;42.668;23.298;2023-08-17T06:04:06;94786.88;;;30.07;36.30
35676;BME280;21790;42.668;23.298;2023-08-17T06:06:31;94794.94;;;30.01;36.24
35676;BME280;21790;42.668;23.298;2023-08-17T06:08:57;94784.63;;;30.05;36.19
35676;BME280;21790;42.668;23.298;2023-08-17T06:11:22;94794.75;;;30.16;36.10
35676;BME280;21790;42.668;23.298;2023-08-17T06:13:50;94791.19;;;30.25;36.13
35676;BME280;21790;42.668;23.298;2023-08-17T06:16:16;94785.41;;;30.32;35.76
35676;BME280;21790;42.668;23.298;2023-08-17T06:18:44;94780.25;;;30.48;36.05
35676;BME280;21790;42.668;23.298;2023-08-17T06:21:12;94782.09;;;30.53;35.15
35676;BME280;21790;42.668;23.298;2023-08-17T06:23:38;94777.75;;;30.62;35.63
35676;BME280;21790;42.668;23.298;2023-08-17T06:26:04;94785.28;;;30.67;35.67
35676;BME280;21790;42.668;23.298;2023-08-17T06:28:29;94781.75;;;30.76;35.61
35676;BME280;21790;42.668;23.298;2023-08-17T06:30:55;94774.53;;;30.75;35.83
35676;BME280;21790;42.668;23.298;2023-08-17T06:33:22;94778.06;;;30.66;35.70
35676;BME280;21790;42.668;23.298;2023-08-17T06:35:48;94788.94;;;30.77;35.79
35676;BME280;21790;42.668;23.298;2023-08-17T06:38:15;94787.69;;;30.97;35.61
35676;BME280;21790;42.668;23.298;2023-08-17T06:40:41;94790.59;;;31.16;36.21
35676;BME280;21790;42.668;23.298;2023-08-17T06:43:07;94793.66;;;31.28;35.55
35676;BME280;21790;42.668;23.298;2023-08-17T06:45:32;94792.13;;;31.17;35.35
35676;BME280;21790;42.668;23.298;2023-08-17T06:47:58;94791.66;;;31.11;35.56
35676;BME280;21790;42.668;23.298;2023-08-17T06:50:24;94787.63;;;31.14;35.47
35676;BME280;21790;42.668;23.298;2023-08-17T06:52:50;94788.53;;;31.27;35.39
35676;BME280;21790;42.668;23.298;2023-08-17T06:55:15;94795.72;;;31.08;34.34
35676;BME280;21790;42.668;23.298;2023-08-17T06:57:42;94790.53;;;30.97;34.12
35676;BME280;21790;42.668;23.298;2023-08-17T07:00:08;94791.19;;;31.05;34.38
35676;BME280;21790;42.668;23.298;2023-08-17T07:02:33;94791.50;;;31.09;34.29
35676;BME280;21790;42.668;23.298;2023-08-17T07:05:00;94791.38;;;31.27;33.95
35676;BME280;21790;42.668;23.298;2023-08-17T07:07:26;94787.94;;;31.38;33.90
35676;BME280;21790;42.668;23.298;2023-08-17T07:09:52;94784.66;;;31.51;33.26
35676;BME280;21790;42.668;23.298;2023-08-17T07:12:18;94789.22;;;31.64;33.26
35676;BME280;21790;42.668;23.298;2023-08-17T07:14:44;94788.31;;;31.61;32.56
35676;BME280;21790;42.668;23.298;2023-08-17T07:17:10;94785.75;;;31.65;32.37
35676;BME280;21790;42.668;23.298;2023-08-17T07:19:36;94787.69;;;31.53;32.50
35676;BME280;21790;42.668;23.298;2023-08-17T07:22:01;94776.00;;;31.59;32.12
35676;BME280;21790;42.668;23.298;2023-08-17T07:24:27;94780.66;;;31.64;31.75
35676;BME280;21790;42.668;23.298;2023-08-17T07:26:52;94780.50;;;31.71;31.08
35676;BME280;21790;42.668;23.298;2023-08-17T07:29:18;94779.31;;;31.74;31.45
35676;BME280;21790;42.668;23.298;2023-08-17T07:31:43;94776.28;;;31.72;30.91
35676;BME280;21790;42.668;23.298;2023-08-17T07:34:10;94775.06;;;31.75;30.50
35676;BME280;21790;42.668;23.298;2023-08-17T07:36:35;94777.63;;;31.81;30.25
35676;BME280;21790;42.668;23.298;2023-08-17T07:39:01;94776.91;;;31.80;30.01
35676;BME280;21790;42.668;23.298;2023-08-17T07:41:27;94779.44;;;31.76;30.05
35676;BME280;21790;42.668;23.298;2023-08-17T07:43:52;94781.25;;;31.81;29.25
35676;BME280;21790;42.668;23.298;2023-08-17T07:46:18;94780.03;;;31.65;29.73
35676;BME280;21790;42.668;23.298;2023-08-17T07:48:43;94777.63;;;32.00;29.90
35676;BME280;21790;42.668;23.298;2023-08-17T07:51:11;94784.41;;;31.95;29.45
35676;BME280;21790;42.668;23.298;2023-08-17T07:53:37;94789.69;;;31.89;29.14
35676;BME280;21790;42.668;23.298;2023-08-17T07:56:02;94771.78;;;31.88;30.41
35676;BME280;21790;42.668;23.298;2023-08-17T07:58:28;94784.56;;;31.87;30.47
35676;BME280;21790;42.668;23.298;2023-08-17T08:00:54;94776.41;;;32.03;30.59
35676;BME280;21790;42.668;23.298;2023-08-17T08:03:19;94778.69;;;32.14;30.76
35676;BME280;21790;42.668;23.298;2023-08-17T08:05:45;94767.53;;;32.28;30.69
35676;BME280;21790;42.668;23.298;2023-08-17T08:08:11;94769.69;;;32.18;30.67
35676;BME280;21790;42.668;23.298;2023-08-17T08:10:36;94775.66;;;32.03;30.78
35676;BME280;21790;42.668;23.298;2023-08-17T08:13:02;94760.47;;;32.19;30.67
35676;BME280;21790;42.668;23.298;2023-08-17T08:15:28;94756.38;;;32.32;30.62
35676;BME280;21790;42.668;23.298;2023-08-17T08:17:53;94771.59;;;32.34;30.21
35676;BME280;21790;42.668;23.298;2023-08-17T08:20:20;94767.03;;;32.41;30.20
35676;BME280;21790;42.668;23.298;2023-08-17T08:22:45;94760.47;;;32.29;30.60
35676;BME280;21790;42.668;23.298;2023-08-17T08:25:11;94765.81;;;32.54;30.45
35676;BME280;21790;42.668;23.298;2023-08-17T08:27:37;94757.66;;;32.60;30.52
35676;BME280;21790;42.668;23.298;2023-08-17T08:30:03;94760.69;;;32.62;30.19
35676;BME280;21790;42.668;23.298;2023-08-17T08:32:28;94753.91;;;32.57;30.18
35676;BME280;21790;42.668;23.298;2023-08-17T08:34:54;94762.91;;;32.63;30.51
35676;BME280;21790;42.668;23.298;2023-08-17T08:37:19;94754.19;;;32.61;30.00
35676;BME280;21790;42.668;23.298;2023-08-17T08:39:49;94755.00;;;32.93;30.20
35676;BME280;21790;42.668;23.298;2023-08-17T08:42:15;94759.00;;;32.78;30.53
35676;BME280;21790;42.668;23.298;2023-08-17T08:44:40;94759.28;;;32.63;30.50
35676;BME280;21790;42.668;23.298;2023-08-17T08:47:06;94757.69;;;32.91;30.30
35676;BME280;21790;42.668;23.298;2023-08-17T08:49:34;94749.81;;;32.70;30.99
35676;BME280;21790;42.668;23.298;2023-08-17T08:52:11;94750.78;;;32.84;30.96
35676;BME280;21790;42.668;23.298;2023-08-17T08:54:38;94746.25;;;32.91;30.68
35676;BME280;21790;42.668;23.298;2023-08-17T08:57:12;94750.44;;;32.99;30.64
35676;BME280;21790;42.668;23.298;2023-08-17T08:59:39;94751.28;;;32.80;31.00
35676;BME280;21790;42.668;23.298;2023-08-17T09:02:15;94750.03;;;32.93;31.04
35676;BME280;21790;42.668;23.298;2023-08-17T09:04:44;94733.06;;;33.07;30.21
35676;BME280;21790;42.668;23.298;2023-08-17T09:07:11;94725.22;;;33.38;30.50
35676;BME280;21790;42.668;23.298;2023-08-17T09:09:37;94722.19;;;33.57;29.76
35676;BME280;21790;42.668;23.298;2023-08-17T09:12:04;94713.09;;;33.61;29.90
35676;BME280;21790;42.668;23.298;2023-08-17T09:14:29;94732.63;;;33.53;29.70
35676;BME280;21790;42.668;23.298;2023-08-17T09:16:55;94718.66;;;32.95;30.63
35676;BME280;21790;42.668;23.298;2023-08-17T09:19:24;94722.34;;;33.38;30.36
35676;BME280;21790;42.668;23.298;2023-08-17T09:21:50;94711.84;;;33.31;29.83
35676;BME280;21790;42.668;23.298;2023-08-17T09:24:15;94719.25;;;33.46;29.56
35676;BME280;21790;42.668;23.298;2023-08-17T09:26:41;94716.97;;;33.02;30.46
35676;BME280;21790;42.668;23.298;2023-08-17T09:29:19;94710.34;;;33.30;30.41
35676;BME280;21790;42.668;23.298;2023-08-17T09:31:48;94704.19;;;33.24;29.65
35676;BME280;21790;42.668;23.298;2023-08-17T09:34:14;94704.19;;;33.24;29.98
35676;BME280;21790;42.668;23.298;2023-08-17T09:36:41;94701.00;;;33.30;29.59
35676;BME280;21790;42.668;23.298;2023-08-17T09:39:07;94693.81;;;33.40;29.65
35676;BME280;21790;42.668;23.298;2023-08-17T09:41:41;94695.44;;;33.65;29.61
35676;BME280;21790;42.668;23.298;2023-08-17T09:44:07;94691.50;;;33.48;28.84
35676;BME280;21790;42.668;23.298;2023-08-17T09:46:33;94688.75;;;33.50;29.30
35676;BME280;21790;42.668;23.298;2023-08-17T09:49:02;94689.91;;;33.57;28.75
35676;BME280;21790;42.668;23.298;2023-08-17T09:51:30;94688.91;;;33.52;28.60
35676;BME280;21790;42.668;23.298;2023-08-17T09:53:57;94686.97;;;33.67;28.82
35676;BME280;21790;42.668;23.298;2023-08-17T09:56:23;94678.31;;;33.76;27.90
35676;BME280;21790;42.668;23.298;2023-08-17T09:58:51;94667.16;;;33.92;27.91
35676;BME280;21790;42.668;23.298;2023-08-17T10:01:18;94675.81;;;33.71;27.85
35676;BME280;21790;42.668;23.298;2023-08-17T10:03:44;94675.47;;;33.76;27.31
35676;BME280;21790;42.668;23.298;2023-08-17T10:06:13;94673.47;;;33.79;27.20
35676;BME280;21790;42.668;23.298;2023-08-17T10:08:43;94676.00;;;33.96;26.89
35676;BME280;21790;42.668;23.298;2023-08-17T10:11:10;94677.84;;;33.80;27.15
35676;BME280;21790;42.668;23.298;2023-08-17T10:13:43;94668.41;;;33.68;27.45
35676;BME280;21790;42.668;23.298;2023-08-17T10:21:40;94667.19;;;34.03;26.83
35676;BME280;21790;42.668;23.298;2023-08-17T10:24:09;94657.94;;;34.05;26.92
35676;BME280;21790;42.668;23.298;2023-08-17T10:26:35;94660.72;;;34.03;27.05
35676;BME280;21790;42.668;23.298;2023-08-17T10:29:02;94652.31;;;34.40;27.01
35676;BME280;21790;42.668;23.298;2023-08-17T10:31:29;94657.66;;;34.34;26.53
35676;BME280;21790;42.668;23.298;2023-08-17T10:33:56;94667.28;;;34.50;26.00
35676;BME280;21790;42.668;23.298;2023-08-17T10:36:23;94657.22;;;34.16;26.25
35676;BME280;21790;42.668;23.298;2023-08-17T10:42:06;94660.78;;;34.38;25.95
35676;BME280;21790;42.668;23.298;2023-08-17T10:44:46;94648.91;;;34.32;25.83
35676;BME280;21790;42.668;23.298;2023-08-17T10:47:31;94643.81;;;34.30;26.16
35676;BME280;21790;42.668;23.298;2023-08-17T10:52:30;94637.81;;;34.26;25.93
35676;BME280;21790;42.668;23.298;2023-08-17T10:54:56;94642.56;;;34.33;25.68
35676;BME280;21790;42.668;23.298;2023-08-17T10:57:25;94646.06;;;34.20;26.06
35676;BME280;21790;42.668;23.298;2023-08-17T11:00:15;94633.22;;;34.44;25.89
35676;BME280;21790;42.668;23.298;2023-08-17T11:03:02;94646.78;;;34.32;25.95
35676;BME280;21790;42.668;23.298;2023-08-17T11:05:37;94637.94;;;34.28;25.61
35676;BME280;21790;42.668;23.298;2023-08-17T11:08:04;94621.72;;;34.44;25.79
35676;BME280;21790;42.668;23.298;2023-08-17T11:10:30;94626.25;;;34.48;25.71
35676;BME280;21790;42.668;23.298;2023-08-17T11:12:59;94616.22;;;34.60;26.14
35676;BME280;21790;42.668;23.298;2023-08-17T11:15:41;94626.00;;;34.78;25.97
35676;BME280;21790;42.668;23.298;2023-08-17T11:18:09;94624.72;;;34.70;25.98
35676;BME280;21790;42.668;23.298;2023-08-17T11:20:36;94633.81;;;34.66;26.35
35676;BME280;21790;42.668;23.298;2023-08-17T11:23:04;94621.13;;;34.46;26.83
35676;BME280;21790;42.668;23.298;2023-08-17T11:25:29;94619.63;;;34.57;26.83
35676;BME280;21790;42.668;23.298;2023-08-17T11:27:56;94619.84;;;34.49;27.07
35676;BME280;21790;42.668;23.298;2023-08-17T11:30:22;94609.63;;;34.23;27.47
35676;BME280;21790;42.668;23.298;2023-08-17T11:32:52;94603.28;;;34.36;27.54
35676;BME280;21790;42.668;23.298;2023-08-17T11:35:18;94620.00;;;34.39;27.10
35676;BME280;21790;42.668;23.298;2023-08-17T11:37:44;94610.38;;;34.47;27.12
35676;BME280;21790;42.668;23.298;2023-08-17T11:40:13;94619.38;;;34.41;27.37
35676;BME280;21790;42.668;23.298;2023-08-17T11:42:39;94610.25;;;34.44;27.62
35676;BME280;21790;42.668;23.298;2023-08-17T11:45:06;94599.41;;;34.43;27.48
35676;BME280;21790;42.668;23.298;2023-08-17T11:47:33;94606.03;;;34.46;27.68
35676;BME280;21790;42.668;23.298;2023-08-17T11:49:59;94612.38;;;34.32;27.35
35676;BME280;21790;42.668;23.298;2023-08-17T11:52:27;94621.88;;;34.35;27.68
35676;BME280;21790;42.668;23.298;2023-08-17T11:54:59;94607.25;;;34.19;27.81
35676;BME280;21790;42.668;23.298;2023-08-17T11:57:25;94613.09;;;34.21;27.69
35676;BME280;21790;42.668;23.298;2023-08-17T11:59:55;94605.25;;;34.33;27.47
35676;BME280;21790;42.668;23.298;2023-08-17T12:02:23;94601.88;;;34.49;28.13
35676;BME280;21790;42.668;23.298;2023-08-17T12:04:51;94602.50;;;34.59;27.76
35676;BME280;21790;42.668;23.298;2023-08-17T12:07:17;94601.13;;;34.60;27.20
35676;BME280;21790;42.668;23.298;2023-08-17T12:09:44;94593.78;;;34.68;27.39
35676;BME280;21790;42.668;23.298;2023-08-17T12:12:10;94588.81;;;34.69;27.22
35676;BME280;21790;42.668;23.298;2023-08-17T12:14:36;94591.91;;;34.73;27.30
35676;BME280;21790;42.668;23.298;2023-08-17T12:17:02;94594.16;;;34.51;27.60
35676;BME280;21790;42.668;23.298;2023-08-17T12:19:29;94591.69;;;34.69;27.55
35676;BME280;21790;42.668;23.298;2023-08-17T12:21:56;94590.41;;;34.49;27.54
35676;BME280;21790;42.668;23.298;2023-08-17T12:24:24;94583.06;;;34.57;28.34
35676;BME280;21790;42.668;23.298;2023-08-17T12:26:51;94587.16;;;34.66;28.05
35676;BME280;21790;42.668;23.298;2023-08-17T12:29:19;94584.16;;;34.75;27.99
35676;BME280;21790;42.668;23.298;2023-08-17T12:31:45;94584.78;;;34.62;27.55
35676;BME280;21790;42.668;23.298;2023-08-17T12:34:10;94577.47;;;34.48;27.59
35676;BME280;21790;42.668;23.298;2023-08-17T12:36:36;94585.69;;;34.30;28.04
35676;BME280;21790;42.668;23.298;2023-08-17T12:39:03;94587.19;;;34.31;27.93
35676;BME280;21790;42.668;23.298;2023-08-17T12:41:29;94592.19;;;34.30;27.99
35676;BME280;21790;42.668;23.298;2023-08-17T12:43:55;94587.69;;;34.27;28.18
35676;BME280;21790;42.668;23.298;2023-08-17T12:46:24;94586.41;;;34.19;28.39
35676;BME280;21790;42.668;23.298;2023-08-17T12:48:49;94582.44;;;34.24;28.71
35676;BME280;21790;42.668;23.298;2023-08-17T12:51:15;94596.16;;;34.25;28.70
35676;BME280;21790;42.668;23.298;2023-08-17T12:53:41;94591.66;;;34.34;30.17
35676;BME280;21790;42.668;23.298;2023-08-17T12:56:06;94582.44;;;34.24;30.48
35676;BME280;21790;42.668;23.298;2023-08-17T12:58:36;94593.16;;;34.35;30.98
35676;BME280;21790;42.668;23.298;2023-08-17T13:01:02;94601.28;;;34.38;31.03
35676;BME280;21790;42.668;23.298;2023-08-17T13:03:28;94594.91;;;34.28;30.90
35676;BME280;21790;42.668;23.298;2023-08-17T13:05:56;94586.56;;;34.32;30.49